LICB/CIY METAR and TAF weather

Enter ICAO airport designator
Station Type Date Time Source
LICB METAR 2019/10/21 21:50 UTC NOAA

LICB 212150Z AUTO 06005KT 9999 NCD 16/14 Q1022


Station Type Date Time Source
LICB Decoded METAR 2019/10/21 21:50 UTC NOAA

Comiso As Usaf , Italy (LICB) 36-56N 014-36E
Oct 21, 2019 - 05:50 PM EDT / 2019.10.21 2150 UTC
Wind: from the ENE (060 degrees) at 6 MPH (5 KT):0
Visibility: greater than 7 mile(s):0
Temperature: 60 F (16 C)
Dew Point: 57 F (14 C)
Relative Humidity: 87%
Pressure (altimeter): 30.18 in. Hg (1022 hPa)
ob: LICB 212150Z AUTO 06005KT 9999 NCD 16/14 Q1022
cycle: 22

Station Type Date Time Source
LICB TAF UTC NOAA

Error!

Example: see airport list